sensor_id;sensor_type;location;lat;lon;timestamp;P1;durP1;ratioP1;P2;durP2;ratioP2
7128;SDS011;3606;52.930;8.644;2023-07-02T00:01:29;5.30;;;3.57;;
7128;SDS011;3606;52.930;8.644;2023-07-02T00:03:54;6.87;;;4.00;;
7128;SDS011;3606;52.930;8.644;2023-07-02T00:06:20;4.60;;;3.40;;
7128;SDS011;3606;52.930;8.644;2023-07-02T00:08:46;4.33;;;3.37;;
7128;SDS011;3606;52.930;8.644;2023-07-02T00:11:11;5.33;;;3.60;;
7128;SDS011;3606;52.930;8.644;2023-07-02T00:13:38;7.23;;;4.00;;
7128;SDS011;3606;52.930;8.644;2023-07-02T00:16:04;3.90;;;3.43;;
7128;SDS011;3606;52.930;8.644;2023-07-02T00:18:30;6.30;;;3.33;;
7128;SDS011;3606;52.930;8.644;2023-07-02T00:20:59;8.23;;;3.80;;
7128;SDS011;3606;52.930;8.644;2023-07-02T00:23:27;6.13;;;3.70;;
7128;SDS011;3606;52.930;8.644;2023-07-02T00:25:53;7.67;;;3.70;;
7128;SDS011;3606;52.930;8.644;2023-07-02T00:28:19;4.57;;;3.90;;
7128;SDS011;3606;52.930;8.644;2023-07-02T00:30:45;6.27;;;4.00;;
7128;SDS011;3606;52.930;8.644;2023-07-02T00:33:10;5.53;;;3.60;;
7128;SDS011;3606;52.930;8.644;2023-07-02T00:35:36;5.93;;;3.97;;
7128;SDS011;3606;52.930;8.644;2023-07-02T00:38:02;5.43;;;3.40;;
7128;SDS011;3606;52.930;8.644;2023-07-02T00:40:28;6.60;;;3.90;;
7128;SDS011;3606;52.930;8.644;2023-07-02T00:42:53;5.90;;;3.83;;
7128;SDS011;3606;52.930;8.644;2023-07-02T00:45:19;6.10;;;3.80;;
7128;SDS011;3606;52.930;8.644;2023-07-02T00:47:44;5.23;;;3.97;;
7128;SDS011;3606;52.930;8.644;2023-07-02T00:50:10;6.00;;;3.23;;
7128;SDS011;3606;52.930;8.644;2023-07-02T00:52:37;6.03;;;3.90;;
7128;SDS011;3606;52.930;8.644;2023-07-02T00:55:03;6.80;;;4.07;;
7128;SDS011;3606;52.930;8.644;2023-07-02T00:57:29;5.77;;;3.97;;
7128;SDS011;3606;52.930;8.644;2023-07-02T00:59:56;8.63;;;3.80;;
7128;SDS011;3606;52.930;8.644;2023-07-02T01:02:25;6.03;;;4.20;;
7128;SDS011;3606;52.930;8.644;2023-07-02T01:04:51;6.50;;;4.40;;
7128;SDS011;3606;52.930;8.644;2023-07-02T01:07:22;6.67;;;3.90;;
7128;SDS011;3606;52.930;8.644;2023-07-02T01:09:48;7.30;;;4.30;;
7128;SDS011;3606;52.930;8.644;2023-07-02T01:12:14;7.47;;;4.00;;
7128;SDS011;3606;52.930;8.644;2023-07-02T01:14:43;5.73;;;3.83;;
7128;SDS011;3606;52.930;8.644;2023-07-02T01:17:12;6.47;;;4.07;;
7128;SDS011;3606;52.930;8.644;2023-07-02T01:19:57;7.07;;;4.47;;
7128;SDS011;3606;52.930;8.644;2023-07-02T01:22:25;6.23;;;3.93;;
7128;SDS011;3606;52.930;8.644;2023-07-02T01:24:52;8.10;;;4.40;;
7128;SDS011;3606;52.930;8.644;2023-07-02T01:27:19;12.07;;;4.80;;
7128;SDS011;3606;52.930;8.644;2023-07-02T01:29:45;10.43;;;4.73;;
7128;SDS011;3606;52.930;8.644;2023-07-02T01:32:12;9.17;;;4.70;;
7128;SDS011;3606;52.930;8.644;2023-07-02T01:34:38;7.30;;;4.57;;
7128;SDS011;3606;52.930;8.644;2023-07-02T01:37:04;6.37;;;4.57;;
7128;SDS011;3606;52.930;8.644;2023-07-02T01:39:30;5.20;;;4.27;;
7128;SDS011;3606;52.930;8.644;2023-07-02T01:42:07;10.43;;;4.90;;
7128;SDS011;3606;52.930;8.644;2023-07-02T01:44:34;8.07;;;4.70;;
7128;SDS011;3606;52.930;8.644;2023-07-02T01:46:59;9.17;;;5.70;;
7128;SDS011;3606;52.930;8.644;2023-07-02T01:49:25;10.90;;;4.90;;
7128;SDS011;3606;52.930;8.644;2023-07-02T01:51:51;8.97;;;4.93;;
7128;SDS011;3606;52.930;8.644;2023-07-02T01:54:17;9.00;;;4.80;;
7128;SDS011;3606;52.930;8.644;2023-07-02T01:56:43;12.93;;;4.53;;
7128;SDS011;3606;52.930;8.644;2023-07-02T01:59:09;8.77;;;4.67;;
7128;SDS011;3606;52.930;8.644;2023-07-02T02:01:34;11.50;;;5.00;;
7128;SDS011;3606;52.930;8.644;2023-07-02T02:04:00;8.43;;;4.13;;
7128;SDS011;3606;52.930;8.644;2023-07-02T02:06:26;6.97;;;4.43;;
7128;SDS011;3606;52.930;8.644;2023-07-02T02:08:51;9.13;;;4.80;;
7128;SDS011;3606;52.930;8.644;2023-07-02T02:11:17;9.20;;;4.77;;
7128;SDS011;3606;52.930;8.644;2023-07-02T02:13:42;12.77;;;4.90;;
7128;SDS011;3606;52.930;8.644;2023-07-02T02:16:08;10.00;;;4.90;;
7128;SDS011;3606;52.930;8.644;2023-07-02T02:18:33;9.17;;;4.63;;
7128;SDS011;3606;52.930;8.644;2023-07-02T02:20:59;13.93;;;5.20;;
7128;SDS011;3606;52.930;8.644;2023-07-02T02:23:25;8.60;;;4.90;;
7128;SDS011;3606;52.930;8.644;2023-07-02T02:25:50;9.03;;;5.00;;
7128;SDS011;3606;52.930;8.644;2023-07-02T02:28:16;13.13;;;4.97;;
7128;SDS011;3606;52.930;8.644;2023-07-02T02:30:42;7.67;;;4.80;;
7128;SDS011;3606;52.930;8.644;2023-07-02T02:33:07;8.73;;;5.07;;
7128;SDS011;3606;52.930;8.644;2023-07-02T02:35:33;10.40;;;5.20;;
7128;SDS011;3606;52.930;8.644;2023-07-02T02:38:00;9.33;;;4.90;;
7128;SDS011;3606;52.930;8.644;2023-07-02T02:40:27;10.83;;;5.67;;
7128;SDS011;3606;52.930;8.644;2023-07-02T02:42:53;11.03;;;5.50;;
7128;SDS011;3606;52.930;8.644;2023-07-02T02:45:19;10.60;;;5.53;;
7128;SDS011;3606;52.930;8.644;2023-07-02T02:47:45;9.30;;;5.30;;
7128;SDS011;3606;52.930;8.644;2023-07-02T02:50:12;9.70;;;5.67;;
7128;SDS011;3606;52.930;8.644;2023-07-02T02:52:38;12.10;;;6.10;;
7128;SDS011;3606;52.930;8.644;2023-07-02T02:55:05;7.60;;;5.03;;
7128;SDS011;3606;52.930;8.644;2023-07-02T02:57:31;11.17;;;5.10;;
7128;SDS011;3606;52.930;8.644;2023-07-02T02:59:58;9.93;;;5.50;;
7128;SDS011;3606;52.930;8.644;2023-07-02T03:02:24;12.13;;;5.37;;
7128;SDS011;3606;52.930;8.644;2023-07-02T03:04:49;8.70;;;5.37;;
7128;SDS011;3606;52.930;8.644;2023-07-02T03:07:15;9.67;;;6.00;;
7128;SDS011;3606;52.930;8.644;2023-07-02T03:09:41;11.93;;;5.93;;
7128;SDS011;3606;52.930;8.644;2023-07-02T03:12:07;8.63;;;5.73;;
7128;SDS011;3606;52.930;8.644;2023-07-02T03:14:32;11.07;;;5.83;;
7128;SDS011;3606;52.930;8.644;2023-07-02T03:16:58;9.60;;;5.90;;
7128;SDS011;3606;52.930;8.644;2023-07-02T03:19:24;10.20;;;5.83;;
7128;SDS011;3606;52.930;8.644;2023-07-02T03:21:50;7.63;;;4.97;;
7128;SDS011;3606;52.930;8.644;2023-07-02T03:24:15;9.80;;;5.57;;
7128;SDS011;3606;52.930;8.644;2023-07-02T03:26:41;11.03;;;5.80;;
7128;SDS011;3606;52.930;8.644;2023-07-02T03:29:08;10.80;;;5.50;;
7128;SDS011;3606;52.930;8.644;2023-07-02T03:31:34;10.53;;;5.70;;
7128;SDS011;3606;52.930;8.644;2023-07-02T03:34:01;9.83;;;5.90;;
7128;SDS011;3606;52.930;8.644;2023-07-02T03:36:34;8.07;;;5.70;;
7128;SDS011;3606;52.930;8.644;2023-07-02T03:39:00;9.00;;;5.83;;
7128;SDS011;3606;52.930;8.644;2023-07-02T03:41:25;9.10;;;5.17;;
7128;SDS011;3606;52.930;8.644;2023-07-02T03:43:55;10.80;;;5.77;;
7128;SDS011;3606;52.930;8.644;2023-07-02T03:46:21;9.23;;;5.67;;
7128;SDS011;3606;52.930;8.644;2023-07-02T03:48:47;7.40;;;5.70;;
7128;SDS011;3606;52.930;8.644;2023-07-02T03:51:13;13.67;;;6.17;;
7128;SDS011;3606;52.930;8.644;2023-07-02T03:53:39;7.93;;;5.93;;
7128;SDS011;3606;52.930;8.644;2023-07-02T03:56:05;10.90;;;6.30;;
7128;SDS011;3606;52.930;8.644;2023-07-02T03:58:31;11.60;;;5.40;;
7128;SDS011;3606;52.930;8.644;2023-07-02T04:00:56;14.20;;;6.20;;
7128;SDS011;3606;52.930;8.644;2023-07-02T04:03:22;10.67;;;5.83;;
7128;SDS011;3606;52.930;8.644;2023-07-02T04:05:48;12.30;;;6.03;;
7128;SDS011;3606;52.930;8.644;2023-07-02T04:08:14;9.33;;;6.17;;
7128;SDS011;3606;52.930;8.644;2023-07-02T04:10:40;8.67;;;5.40;;
7128;SDS011;3606;52.930;8.644;2023-07-02T04:13:06;13.40;;;6.03;;
7128;SDS011;3606;52.930;8.644;2023-07-02T04:15:32;10.63;;;5.60;;
7128;SDS011;3606;52.930;8.644;2023-07-02T04:17:57;8.60;;;6.20;;
7128;SDS011;3606;52.930;8.644;2023-07-02T04:20:23;7.33;;;5.37;;
7128;SDS011;3606;52.930;8.644;2023-07-02T04:22:50;13.97;;;6.27;;
7128;SDS011;3606;52.930;8.644;2023-07-02T04:25:15;10.67;;;5.30;;
7128;SDS011;3606;52.930;8.644;2023-07-02T04:27:42;15.03;;;5.30;;
7128;SDS011;3606;52.930;8.644;2023-07-02T04:30:08;14.03;;;6.20;;
7128;SDS011;3606;52.930;8.644;2023-07-02T04:32:35;10.17;;;5.20;;
7128;SDS011;3606;52.930;8.644;2023-07-02T04:35:01;11.57;;;5.43;;
7128;SDS011;3606;52.930;8.644;2023-07-02T04:37:27;13.60;;;5.57;;
7128;SDS011;3606;52.930;8.644;2023-07-02T04:39:53;12.47;;;5.37;;
7128;SDS011;3606;52.930;8.644;2023-07-02T04:42:19;15.23;;;6.50;;
7128;SDS011;3606;52.930;8.644;2023-07-02T04:44:44;9.00;;;6.00;;
7128;SDS011;3606;52.930;8.644;2023-07-02T04:47:10;16.50;;;6.20;;
7128;SDS011;3606;52.930;8.644;2023-07-02T04:49:36;16.27;;;6.40;;
7128;SDS011;3606;52.930;8.644;2023-07-02T04:52:03;17.80;;;6.93;;
7128;SDS011;3606;52.930;8.644;2023-07-02T04:54:28;15.13;;;6.10;;
7128;SDS011;3606;52.930;8.644;2023-07-02T04:56:54;15.37;;;5.90;;
7128;SDS011;3606;52.930;8.644;2023-07-02T04:59:20;16.50;;;6.17;;
7128;SDS011;3606;52.930;8.644;2023-07-02T05:01:46;15.00;;;5.97;;
7128;SDS011;3606;52.930;8.644;2023-07-02T05:04:12;16.70;;;6.27;;
7128;SDS011;3606;52.930;8.644;2023-07-02T05:06:38;17.00;;;6.77;;
7128;SDS011;3606;52.930;8.644;2023-07-02T05:09:03;11.77;;;6.53;;
7128;SDS011;3606;52.930;8.644;2023-07-02T05:11:29;13.30;;;6.10;;
7128;SDS011;3606;52.930;8.644;2023-07-02T05:13:54;16.17;;;6.53;;
7128;SDS011;3606;52.930;8.644;2023-07-02T05:16:20;14.60;;;6.67;;
7128;SDS011;3606;52.930;8.644;2023-07-02T05:18:45;14.43;;;6.67;;
7128;SDS011;3606;52.930;8.644;2023-07-02T05:21:11;19.00;;;6.50;;
7128;SDS011;3606;52.930;8.644;2023-07-02T05:23:37;16.37;;;6.73;;
7128;SDS011;3606;52.930;8.644;2023-07-02T05:26:02;14.33;;;6.83;;
7128;SDS011;3606;52.930;8.644;2023-07-02T05:28:28;15.37;;;6.77;;
7128;SDS011;3606;52.930;8.644;2023-07-02T05:30:54;13.33;;;6.80;;
7128;SDS011;3606;52.930;8.644;2023-07-02T05:33:19;16.13;;;7.00;;
7128;SDS011;3606;52.930;8.644;2023-07-02T05:35:47;15.67;;;6.83;;
7128;SDS011;3606;52.930;8.644;2023-07-02T05:38:13;16.23;;;6.60;;
7128;SDS011;3606;52.930;8.644;2023-07-02T05:40:38;13.57;;;6.57;;
7128;SDS011;3606;52.930;8.644;2023-07-02T05:43:04;18.33;;;6.80;;
7128;SDS011;3606;52.930;8.644;2023-07-02T05:45:30;18.30;;;7.30;;
7128;SDS011;3606;52.930;8.644;2023-07-02T05:47:55;18.23;;;7.00;;
7128;SDS011;3606;52.930;8.644;2023-07-02T05:50:21;13.53;;;6.80;;
7128;SDS011;3606;52.930;8.644;2023-07-02T05:52:46;16.67;;;7.10;;
7128;SDS011;3606;52.930;8.644;2023-07-02T05:55:12;18.80;;;7.20;;
7128;SDS011;3606;52.930;8.644;2023-07-02T05:57:38;19.43;;;7.47;;
7128;SDS011;3606;52.930;8.644;2023-07-02T06:00:06;19.23;;;7.90;;
7128;SDS011;3606;52.930;8.644;2023-07-02T06:02:32;15.10;;;7.33;;
7128;SDS011;3606;52.930;8.644;2023-07-02T06:04:58;18.00;;;7.10;;
7128;SDS011;3606;52.930;8.644;2023-07-02T06:07:24;17.10;;;7.07;;
7128;SDS011;3606;52.930;8.644;2023-07-02T06:09:50;20.67;;;7.53;;
7128;SDS011;3606;52.930;8.644;2023-07-02T06:12:15;18.13;;;7.93;;
7128;SDS011;3606;52.930;8.644;2023-07-02T06:14:41;15.43;;;7.47;;
7128;SDS011;3606;52.930;8.644;2023-07-02T06:17:07;20.03;;;7.70;;
7128;SDS011;3606;52.930;8.644;2023-07-02T06:19:33;17.83;;;7.47;;
7128;SDS011;3606;52.930;8.644;2023-07-02T06:21:59;14.67;;;7.23;;
7128;SDS011;3606;52.930;8.644;2023-07-02T06:24:25;18.70;;;7.67;;
7128;SDS011;3606;52.930;8.644;2023-07-02T06:26:50;16.97;;;7.13;;
7128;SDS011;3606;52.930;8.644;2023-07-02T06:29:16;15.23;;;6.53;;
7128;SDS011;3606;52.930;8.644;2023-07-02T06:31:41;19.90;;;7.23;;
7128;SDS011;3606;52.930;8.644;2023-07-02T06:34:07;13.63;;;6.50;;
7128;SDS011;3606;52.930;8.644;2023-07-02T06:36:33;16.57;;;7.00;;
7128;SDS011;3606;52.930;8.644;2023-07-02T06:38:59;19.23;;;7.63;;
7128;SDS011;3606;52.930;8.644;2023-07-02T06:41:25;18.07;;;7.77;;
7128;SDS011;3606;52.930;8.644;2023-07-02T06:43:51;19.33;;;7.13;;
7128;SDS011;3606;52.930;8.644;2023-07-02T06:46:16;17.30;;;7.23;;
7128;SDS011;3606;52.930;8.644;2023-07-02T06:48:42;14.30;;;6.93;;
7128;SDS011;3606;52.930;8.644;2023-07-02T06:51:08;17.03;;;7.30;;
7128;SDS011;3606;52.930;8.644;2023-07-02T06:53:33;18.23;;;7.47;;
7128;SDS011;3606;52.930;8.644;2023-07-02T06:55:59;19.73;;;7.27;;
7128;SDS011;3606;52.930;8.644;2023-07-02T06:58:25;18.10;;;6.80;;
7128;SDS011;3606;52.930;8.644;2023-07-02T07:00:50;15.27;;;7.13;;
7128;SDS011;3606;52.930;8.644;2023-07-02T07:03:16;14.60;;;7.30;;
7128;SDS011;3606;52.930;8.644;2023-07-02T07:05:42;17.70;;;7.33;;
7128;SDS011;3606;52.930;8.644;2023-07-02T07:08:07;16.43;;;7.20;;
7128;SDS011;3606;52.930;8.644;2023-07-02T07:10:33;12.50;;;6.70;;
7128;SDS011;3606;52.930;8.644;2023-07-02T07:13:02;15.97;;;7.10;;
7128;SDS011;3606;52.930;8.644;2023-07-02T07:15:30;17.53;;;7.50;;
7128;SDS011;3606;52.930;8.644;2023-07-02T07:17:58;20.13;;;7.53;;
7128;SDS011;3606;52.930;8.644;2023-07-02T07:20:23;20.10;;;7.43;;
7128;SDS011;3606;52.930;8.644;2023-07-02T07:22:49;15.07;;;6.90;;
7128;SDS011;3606;52.930;8.644;2023-07-02T07:25:14;12.70;;;6.73;;
7128;SDS011;3606;52.930;8.644;2023-07-02T07:27:40;14.33;;;6.33;;
7128;SDS011;3606;52.930;8.644;2023-07-02T07:30:06;16.87;;;6.40;;
7128;SDS011;3606;52.930;8.644;2023-07-02T07:32:32;14.13;;;6.40;;
7128;SDS011;3606;52.930;8.644;2023-07-02T07:34:57;12.73;;;6.63;;
7128;SDS011;3606;52.930;8.644;2023-07-02T07:37:23;15.77;;;7.07;;
7128;SDS011;3606;52.930;8.644;2023-07-02T07:39:50;16.60;;;6.67;;
7128;SDS011;3606;52.930;8.644;2023-07-02T07:42:16;11.53;;;6.50;;
7128;SDS011;3606;52.930;8.644;2023-07-02T07:44:44;15.30;;;6.73;;
7128;SDS011;3606;52.930;8.644;2023-07-02T07:47:11;13.33;;;6.23;;
7128;SDS011;3606;52.930;8.644;2023-07-02T07:49:37;12.50;;;6.90;;
7128;SDS011;3606;52.930;8.644;2023-07-02T07:52:02;15.40;;;6.70;;
7128;SDS011;3606;52.930;8.644;2023-07-02T07:54:28;15.87;;;6.87;;
7128;SDS011;3606;52.930;8.644;2023-07-02T07:56:54;16.70;;;6.80;;
7128;SDS011;3606;52.930;8.644;2023-07-02T07:59:20;13.50;;;6.57;;
7128;SDS011;3606;52.930;8.644;2023-07-02T08:01:45;13.07;;;6.13;;
7128;SDS011;3606;52.930;8.644;2023-07-02T08:04:11;19.37;;;6.20;;
7128;SDS011;3606;52.930;8.644;2023-07-02T08:06:37;16.50;;;5.83;;
7128;SDS011;3606;52.930;8.644;2023-07-02T08:09:03;12.27;;;5.57;;
7128;SDS011;3606;52.930;8.644;2023-07-02T08:11:28;12.20;;;5.80;;
7128;SDS011;3606;52.930;8.644;2023-07-02T08:13:54;13.20;;;6.03;;
7128;SDS011;3606;52.930;8.644;2023-07-02T08:16:19;11.53;;;5.63;;
7128;SDS011;3606;52.930;8.644;2023-07-02T08:18:45;14.33;;;6.20;;
7128;SDS011;3606;52.930;8.644;2023-07-02T08:21:11;13.67;;;5.73;;
7128;SDS011;3606;52.930;8.644;2023-07-02T08:23:36;12.27;;;5.47;;
7128;SDS011;3606;52.930;8.644;2023-07-02T08:26:02;12.80;;;5.83;;
7128;SDS011;3606;52.930;8.644;2023-07-02T08:28:28;12.00;;;5.30;;
7128;SDS011;3606;52.930;8.644;2023-07-02T08:30:54;14.33;;;5.73;;
7128;SDS011;3606;52.930;8.644;2023-07-02T08:33:20;13.83;;;6.37;;
7128;SDS011;3606;52.930;8.644;2023-07-02T08:35:45;12.00;;;5.70;;
7128;SDS011;3606;52.930;8.644;2023-07-02T08:38:11;11.00;;;5.57;;
7128;SDS011;3606;52.930;8.644;2023-07-02T08:40:37;11.60;;;5.20;;
7128;SDS011;3606;52.930;8.644;2023-07-02T08:43:02;11.13;;;5.80;;
7128;SDS011;3606;52.930;8.644;2023-07-02T08:45:28;11.63;;;5.43;;
7128;SDS011;3606;52.930;8.644;2023-07-02T08:47:55;11.60;;;5.70;;
7128;SDS011;3606;52.930;8.644;2023-07-02T08:50:23;12.70;;;5.80;;
7128;SDS011;3606;52.930;8.644;2023-07-02T08:52:48;15.53;;;6.13;;
7128;SDS011;3606;52.930;8.644;2023-07-02T08:55:14;12.37;;;5.53;;
7128;SDS011;3606;52.930;8.644;2023-07-02T08:57:40;11.57;;;6.07;;
7128;SDS011;3606;52.930;8.644;2023-07-02T09:00:14;12.60;;;5.57;;
7128;SDS011;3606;52.930;8.644;2023-07-02T09:02:40;16.43;;;6.03;;
7128;SDS011;3606;52.930;8.644;2023-07-02T09:05:06;11.87;;;5.83;;
7128;SDS011;3606;52.930;8.644;2023-07-02T09:07:31;14.13;;;5.63;;
7128;SDS011;3606;52.930;8.644;2023-07-02T09:10:08;10.30;;;5.80;;
7128;SDS011;3606;52.930;8.644;2023-07-02T09:12:34;13.30;;;5.77;;
7128;SDS011;3606;52.930;8.644;2023-07-02T09:15:04;10.07;;;5.73;;
7128;SDS011;3606;52.930;8.644;2023-07-02T09:17:37;12.57;;;6.13;;
7128;SDS011;3606;52.930;8.644;2023-07-02T09:20:04;12.50;;;6.40;;
7128;SDS011;3606;52.930;8.644;2023-07-02T09:22:33;14.17;;;6.17;;
7128;SDS011;3606;52.930;8.644;2023-07-02T09:24:59;12.67;;;6.37;;
7128;SDS011;3606;52.930;8.644;2023-07-02T09:27:35;13.83;;;6.40;;
7128;SDS011;3606;52.930;8.644;2023-07-02T09:30:09;13.03;;;5.90;;
7128;SDS011;3606;52.930;8.644;2023-07-02T09:32:38;11.43;;;5.90;;
7128;SDS011;3606;52.930;8.644;2023-07-02T09:35:04;11.30;;;5.90;;
7128;SDS011;3606;52.930;8.644;2023-07-02T09:37:30;13.97;;;6.30;;
7128;SDS011;3606;52.930;8.644;2023-07-02T09:39:56;9.20;;;5.27;;
7128;SDS011;3606;52.930;8.644;2023-07-02T09:42:22;10.53;;;5.27;;
7128;SDS011;3606;52.930;8.644;2023-07-02T09:44:51;12.80;;;5.90;;
7128;SDS011;3606;52.930;8.644;2023-07-02T09:47:19;9.00;;;5.23;;
7128;SDS011;3606;52.930;8.644;2023-07-02T09:50:00;10.17;;;5.33;;
7128;SDS011;3606;52.930;8.644;2023-07-02T09:52:30;9.27;;;4.97;;
7128;SDS011;3606;52.930;8.644;2023-07-02T09:54:58;9.10;;;5.10;;
7128;SDS011;3606;52.930;8.644;2023-07-02T09:57:24;10.15;;;4.88;;
7128;SDS011;3606;52.930;8.644;2023-07-02T09:59:49;9.18;;;5.30;;
7128;SDS011;3606;52.930;8.644;2023-07-02T10:02:15;8.47;;;5.43;;
7128;SDS011;3606;52.930;8.644;2023-07-02T10:04:47;13.03;;;5.67;;
7128;SDS011;3606;52.930;8.644;2023-07-02T10:07:29;10.47;;;5.67;;
7128;SDS011;3606;52.930;8.644;2023-07-02T10:09:56;9.07;;;5.77;;
7128;SDS011;3606;52.930;8.644;2023-07-02T10:12:26;9.97;;;5.67;;
7128;SDS011;3606;52.930;8.644;2023-07-02T10:14:56;14.13;;;6.30;;
7128;SDS011;3606;52.930;8.644;2023-07-02T10:17:23;9.60;;;5.50;;
7128;SDS011;3606;52.930;8.644;2023-07-02T10:19:56;12.63;;;6.50;;
7128;SDS011;3606;52.930;8.644;2023-07-02T10:22:24;10.80;;;5.90;;
7128;SDS011;3606;52.930;8.644;2023-07-02T10:24:57;12.57;;;5.80;;
7128;SDS011;3606;52.930;8.644;2023-07-02T10:27:41;14.27;;;6.03;;
7128;SDS011;3606;52.930;8.644;2023-07-02T10:30:08;11.00;;;5.63;;
7128;SDS011;3606;52.930;8.644;2023-07-02T10:32:35;13.65;;;5.63;;
7128;SDS011;3606;52.930;8.644;2023-07-02T10:35:12;13.35;;;6.10;;
7128;SDS011;3606;52.930;8.644;2023-07-02T10:37:39;9.85;;;5.80;;
7128;SDS011;3606;52.930;8.644;2023-07-02T10:40:08;12.07;;;5.03;;
7128;SDS011;3606;52.930;8.644;2023-07-02T10:42:45;13.60;;;6.00;;
7128;SDS011;3606;52.930;8.644;2023-07-02T10:45:15;9.27;;;5.47;;
7128;SDS011;3606;52.930;8.644;2023-07-02T10:47:41;18.37;;;5.33;;
7128;SDS011;3606;52.930;8.644;2023-07-02T10:50:16;9.73;;;5.17;;
7128;SDS011;3606;52.930;8.644;2023-07-02T10:52:44;8.83;;;4.10;;
7128;SDS011;3606;52.930;8.644;2023-07-02T10:55:09;7.43;;;3.60;;
7128;SDS011;3606;52.930;8.644;2023-07-02T10:57:35;7.00;;;3.70;;
7128;SDS011;3606;52.930;8.644;2023-07-02T11:00:07;8.33;;;3.73;;
7128;SDS011;3606;52.930;8.644;2023-07-02T11:02:37;5.50;;;3.17;;
7128;SDS011;3606;52.930;8.644;2023-07-02T11:05:04;7.20;;;3.57;;
7128;SDS011;3606;52.930;8.644;2023-07-02T11:07:31;8.17;;;3.53;;
7128;SDS011;3606;52.930;8.644;2023-07-02T11:09:57;8.30;;;3.47;;
7128;SDS011;3606;52.930;8.644;2023-07-02T11:12:31;6.43;;;3.57;;
7128;SDS011;3606;52.930;8.644;2023-07-02T11:15:10;5.47;;;2.90;;
7128;SDS011;3606;52.930;8.644;2023-07-02T11:17:37;7.20;;;3.33;;
7128;SDS011;3606;52.930;8.644;2023-07-02T11:20:04;7.27;;;3.37;;
7128;SDS011;3606;52.930;8.644;2023-07-02T11:22:31;6.57;;;3.33;;
7128;SDS011;3606;52.930;8.644;2023-07-02T11:25:07;4.30;;;3.10;;
7128;SDS011;3606;52.930;8.644;2023-07-02T11:27:37;4.27;;;3.00;;
7128;SDS011;3606;52.930;8.644;2023-07-02T11:30:03;6.57;;;3.13;;
7128;SDS011;3606;52.930;8.644;2023-07-02T11:32:29;8.50;;;3.27;;
7128;SDS011;3606;52.930;8.644;2023-07-02T11:34:55;5.60;;;3.00;;
7128;SDS011;3606;52.930;8.644;2023-07-02T11:37:21;4.53;;;2.70;;
7128;SDS011;3606;52.930;8.644;2023-07-02T11:39:47;4.87;;;2.97;;
7128;SDS011;3606;52.930;8.644;2023-07-02T11:42:13;4.27;;;3.00;;
7128;SDS011;3606;52.930;8.644;2023-07-02T11:44:38;5.90;;;2.60;;
7128;SDS011;3606;52.930;8.644;2023-07-02T11:47:05;6.10;;;2.80;;
7128;SDS011;3606;52.930;8.644;2023-07-02T11:49:30;6.83;;;3.23;;
7128;SDS011;3606;52.930;8.644;2023-07-02T11:51:56;10.03;;;3.00;;
7128;SDS011;3606;52.930;8.644;2023-07-02T11:54:21;5.80;;;3.20;;
7128;SDS011;3606;52.930;8.644;2023-07-02T11:59:19;5.17;;;3.20;;
7128;SDS011;3606;52.930;8.644;2023-07-02T12:01:44;7.63;;;3.33;;
7128;SDS011;3606;52.930;8.644;2023-07-02T12:04:10;7.47;;;3.70;;
7128;SDS011;3606;52.930;8.644;2023-07-02T12:06:37;5.80;;;3.10;;
7128;SDS011;3606;52.930;8.644;2023-07-02T12:09:02;7.70;;;3.30;;
7128;SDS011;3606;52.930;8.644;2023-07-02T12:11:28;7.83;;;3.27;;
7128;SDS011;3606;52.930;8.644;2023-07-02T12:13:54;7.53;;;3.50;;
7128;SDS011;3606;52.930;8.644;2023-07-02T12:16:19;9.73;;;3.50;;
7128;SDS011;3606;52.930;8.644;2023-07-02T12:18:45;7.70;;;3.30;;
7128;SDS011;3606;52.930;8.644;2023-07-02T12:21:10;5.50;;;3.30;;
7128;SDS011;3606;52.930;8.644;2023-07-02T12:23:36;7.73;;;3.70;;
7128;SDS011;3606;52.930;8.644;2023-07-02T12:26:02;4.70;;;3.30;;
7128;SDS011;3606;52.930;8.644;2023-07-02T12:28:27;6.90;;;3.50;;
7128;SDS011;3606;52.930;8.644;2023-07-02T12:30:53;8.73;;;3.70;;
7128;SDS011;3606;52.930;8.644;2023-07-02T12:33:19;6.97;;;3.43;;
7128;SDS011;3606;52.930;8.644;2023-07-02T12:35:44;7.03;;;3.93;;
7128;SDS011;3606;52.930;8.644;2023-07-02T12:38:10;7.03;;;4.00;;
7128;SDS011;3606;52.930;8.644;2023-07-02T12:40:35;8.40;;;4.13;;
7128;SDS011;3606;52.930;8.644;2023-07-02T12:43:01;7.57;;;3.53;;
7128;SDS011;3606;52.930;8.644;2023-07-02T12:45:26;8.63;;;3.60;;
7128;SDS011;3606;52.930;8.644;2023-07-02T12:47:52;8.67;;;4.13;;
7128;SDS011;3606;52.930;8.644;2023-07-02T12:50:18;9.33;;;4.00;;
7128;SDS011;3606;52.930;8.644;2023-07-02T12:52:43;6.63;;;3.67;;
7128;SDS011;3606;52.930;8.644;2023-07-02T12:55:09;7.53;;;3.20;;
7128;SDS011;3606;52.930;8.644;2023-07-02T12:57:34;4.70;;;3.13;;
7128;SDS011;3606;52.930;8.644;2023-07-02T13:00:00;4.35;;;3.13;;
7128;SDS011;3606;52.930;8.644;2023-07-02T13:02:26;5.28;;;3.20;;
7128;SDS011;3606;52.930;8.644;2023-07-02T13:04:51;6.65;;;3.15;;
7128;SDS011;3606;52.930;8.644;2023-07-02T13:07:17;7.63;;;3.47;;
7128;SDS011;3606;52.930;8.644;2023-07-02T13:09:43;7.57;;;3.40;;
7128;SDS011;3606;52.930;8.644;2023-07-02T13:12:09;6.95;;;3.40;;
7128;SDS011;3606;52.930;8.644;2023-07-02T13:14:36;7.10;;;3.37;;
7128;SDS011;3606;52.930;8.644;2023-07-02T13:17:01;7.00;;;3.50;;
7128;SDS011;3606;52.930;8.644;2023-07-02T13:19:30;9.63;;;3.70;;
7128;SDS011;3606;52.930;8.644;2023-07-02T13:21:55;5.97;;;3.47;;
7128;SDS011;3606;52.930;8.644;2023-07-02T13:24:21;9.07;;;3.20;;
7128;SDS011;3606;52.930;8.644;2023-07-02T13:26:46;5.77;;;3.40;;
7128;SDS011;3606;52.930;8.644;2023-07-02T13:29:12;7.13;;;3.10;;
7128;SDS011;3606;52.930;8.644;2023-07-02T13:31:38;6.17;;;3.50;;
7128;SDS011;3606;52.930;8.644;2023-07-02T13:34:04;6.73;;;3.40;;
7128;SDS011;3606;52.930;8.644;2023-07-02T13:36:29;4.40;;;3.00;;
7128;SDS011;3606;52.930;8.644;2023-07-02T13:38:55;6.53;;;3.50;;
7128;SDS011;3606;52.930;8.644;2023-07-02T13:41:21;8.30;;;3.80;;
7128;SDS011;3606;52.930;8.644;2023-07-02T13:43:46;5.50;;;3.43;;
7128;SDS011;3606;52.930;8.644;2023-07-02T13:46:12;8.40;;;3.70;;
7128;SDS011;3606;52.930;8.644;2023-07-02T13:48:38;8.77;;;3.53;;
7128;SDS011;3606;52.930;8.644;2023-07-02T13:51:04;6.37;;;3.30;;
7128;SDS011;3606;52.930;8.644;2023-07-02T13:53:30;6.57;;;3.43;;
7128;SDS011;3606;52.930;8.644;2023-07-02T13:55:56;8.37;;;3.90;;
7128;SDS011;3606;52.930;8.644;2023-07-02T13:58:22;7.73;;;3.50;;
7128;SDS011;3606;52.930;8.644;2023-07-02T14:00:47;7.90;;;3.90;;
7128;SDS011;3606;52.930;8.644;2023-07-02T14:03:13;7.60;;;3.47;;
7128;SDS011;3606;52.930;8.644;2023-07-02T14:05:39;6.20;;;3.47;;
7128;SDS011;3606;52.930;8.644;2023-07-02T14:08:05;7.00;;;3.70;;
7128;SDS011;3606;52.930;8.644;2023-07-02T14:10:31;7.63;;;3.80;;
7128;SDS011;3606;52.930;8.644;2023-07-02T14:12:56;7.93;;;3.40;;
7128;SDS011;3606;52.930;8.644;2023-07-02T14:15:23;6.23;;;3.80;;
7128;SDS011;3606;52.930;8.644;2023-07-02T14:17:49;9.10;;;3.73;;
7128;SDS011;3606;52.930;8.644;2023-07-02T14:20:14;6.40;;;3.47;;
7128;SDS011;3606;52.930;8.644;2023-07-02T14:22:40;8.73;;;3.70;;
7128;SDS011;3606;52.930;8.644;2023-07-02T14:25:06;7.07;;;3.70;;
7128;SDS011;3606;52.930;8.644;2023-07-02T14:27:32;11.67;;;4.10;;
7128;SDS011;3606;52.930;8.644;2023-07-02T14:29:57;7.73;;;3.63;;
7128;SDS011;3606;52.930;8.644;2023-07-02T14:32:25;7.13;;;3.77;;
7128;SDS011;3606;52.930;8.644;2023-07-02T14:34:51;8.87;;;3.67;;
7128;SDS011;3606;52.930;8.644;2023-07-02T14:37:17;7.60;;;3.70;;
7128;SDS011;3606;52.930;8.644;2023-07-02T14:39:42;6.07;;;3.30;;
7128;SDS011;3606;52.930;8.644;2023-07-02T14:42:08;7.23;;;3.30;;
7128;SDS011;3606;52.930;8.644;2023-07-02T14:44:33;4.97;;;3.27;;
7128;SDS011;3606;52.930;8.644;2023-07-02T14:46:59;9.60;;;3.90;;
7128;SDS011;3606;52.930;8.644;2023-07-02T14:49:25;4.47;;;3.33;;
7128;SDS011;3606;52.930;8.644;2023-07-02T14:51:58;8.23;;;3.50;;
7128;SDS011;3606;52.930;8.644;2023-07-02T14:54:24;5.73;;;3.17;;
7128;SDS011;3606;52.930;8.644;2023-07-02T14:56:51;7.27;;;3.40;;
7128;SDS011;3606;52.930;8.644;2023-07-02T14:59:32;8.57;;;3.33;;
7128;SDS011;3606;52.930;8.644;2023-07-02T15:01:57;5.73;;;3.33;;
7128;SDS011;3606;52.930;8.644;2023-07-02T15:04:23;6.67;;;2.87;;
7128;SDS011;3606;52.930;8.644;2023-07-02T15:06:48;6.20;;;3.00;;